X  Close Metar Aviation Weather Data     KMLB Melbourne Orlando International Airport
Temperature
75°F Temperature
63°F Dewpoint
65% Humidity



Wind
8 MPH
13 KM/H
4 M/S
7 KTS



60°
ENE
Current Conditions

Overcast Overcast
Pressure 1016.92 (hPa) - 30.03 (inHg)
Visibility 10 (mile) - 16.1 (km)
Airport
Airport-code KMLB

Location: Melbourne Orlando International Airport
Distance: 4 (mi)

Metar:
KMLB 060053Z 06007KT 10SM OVC050 24/17 A3003 RMK AO2 SLP166 T02390167

Time: 05-10-2022 8:53 pm EDT